Albstadt-Degerfeld Airport


Codes: EDSA/
Name: Albstadt-Degerfeld Airport
City: Albstadt
Country: Germany
Elevation: 2881 ft.
Website:
Wikipedia:

Photos at Albstadt-Degerfeld Airport


   Photos courtesy of SpottingLog. You can add your own sightings and photos by signing up for a free trial today.



No photos found.

Weather at Albstadt-Degerfeld Airport


Time (UTC)DescriptionTempratureWindCloud coverageVisibilityPressureHumidity
15-Apr-2024 18:00Light Rain13°C22 mph, W71%10000m1008hPa66%
15-Apr-2024 21:00Light Rain9°C13 mph, NW71%235m1009hPa77%
16-Apr-2024 00:00Snow5°C11 mph, N81%0m1009hPa88%
16-Apr-2024 03:00Light Snow1°C13 mph, W100%3419m1010hPa96%
16-Apr-2024 06:00Light Snow0°C18 mph, W99%10000m1011hPa91%
16-Apr-2024 09:00Broken Clouds3°C18 mph, SW56%10000m1010hPa79%
16-Apr-2024 12:00Light Snow3°C18 mph, W66%8940m1010hPa84%
16-Apr-2024 15:00Light Rain4°C18 mph, W73%6663m1009hPa82%
16-Apr-2024 18:00Light Snow2°C11 mph, N86%0m1010hPa96%
16-Apr-2024 21:00Light Snow1°C11 mph, N100%0m1012hPa98%
17-Apr-2024 00:00Light Snow-0°C13 mph, W98%10000m1012hPa93%
17-Apr-2024 03:00Light Snow-1°C9 mph, SW100%10000m1012hPa92%
17-Apr-2024 06:00Snow-1°C7 mph, N100%0m1013hPa99%
17-Apr-2024 09:00Snow-0°C7 mph, W100%112m1014hPa100%
17-Apr-2024 12:00Light Snow0°C7 mph, W100%363m1014hPa99%
17-Apr-2024 15:00Light Snow1°C9 mph, N100%0m1014hPa98%
17-Apr-2024 18:00Light Snow-0°C2 mph, W100%10000m1014hPa96%
17-Apr-2024 21:00Overcast Clouds-5°C2 mph, S100%10000m1016hPa99%
18-Apr-2024 00:00Overcast Clouds-4°C2 mph, SE100%10000m1016hPa98%
18-Apr-2024 03:00Overcast Clouds-5°C2 mph, S100%10000m1016hPa98%
18-Apr-2024 06:00Overcast Clouds-1°C0 mph, N100%10000m1016hPa95%
18-Apr-2024 09:00Light Snow2°C4 mph, N99%5381m1017hPa89%
18-Apr-2024 12:00Light Snow2°C7 mph, N96%10000m1017hPa90%
18-Apr-2024 15:00Light Rain4°C7 mph, N74%10000m1018hPa85%
18-Apr-2024 18:00Snow0°C2 mph, NW85%10000m1020hPa97%
18-Apr-2024 21:00Clear Sky-3°C2 mph, SW8%10000m1023hPa96%
19-Apr-2024 00:00Scattered Clouds-2°C2 mph, SW33%10000m1023hPa96%
19-Apr-2024 03:00Few Clouds-4°C2 mph, SW18%10000m1024hPa96%
19-Apr-2024 06:00Broken Clouds0°C4 mph, SW59%10000m1023hPa94%
19-Apr-2024 09:00Light Snow4°C11 mph, W100%10000m1021hPa85%
19-Apr-2024 12:00Light Snow4°C13 mph, W100%10000m1019hPa82%
19-Apr-2024 15:00Light Snow2°C13 mph, W100%1368m1019hPa96%
19-Apr-2024 18:00Light Snow1°C11 mph, W100%53m1019hPa98%
19-Apr-2024 21:00Light Rain2°C13 mph, N100%0m1019hPa99%
20-Apr-2024 00:00Light Snow1°C11 mph, NW100%8397m1020hPa97%
20-Apr-2024 03:00Light Snow0°C9 mph, N93%0m1021hPa97%
20-Apr-2024 06:00Light Snow-0°C7 mph, NW97%1599m1024hPa96%
20-Apr-2024 09:00Light Snow1°C9 mph, NW100%10000m1025hPa88%
20-Apr-2024 12:00Overcast Clouds3°C9 mph, NW100%10000m1025hPa72%
20-Apr-2024 15:00Overcast Clouds4°C9 mph, NW100%10000m1025hPa66%